createdAt,value
2024-03-05T00:00:47.431Z,100248.38
2024-03-05T00:03:13.962Z,100249.19
2024-03-05T00:05:40.519Z,100244.19
2024-03-05T00:08:07.579Z,100249.41
2024-03-05T00:10:39.975Z,100241.56
2024-03-05T00:13:11.218Z,100252.13
2024-03-05T00:15:37.883Z,100245.09
2024-03-05T00:18:05.594Z,100247.72
2024-03-05T00:20:33.223Z,100254.84
2024-03-05T00:22:59.873Z,100252.44
2024-03-05T00:25:27.418Z,100245.31
2024-03-05T00:27:56.548Z,100249.59
2024-03-05T00:30:26.579Z,100258.31
2024-03-05T00:32:55.749Z,100260.09
2024-03-05T00:35:22.483Z,100252.22
2024-03-05T00:37:49.145Z,100247.94
2024-03-05T00:40:15.895Z,100241.00
2024-03-05T00:42:42.762Z,100238.50
2024-03-05T00:45:10.933Z,100248.16
2024-03-05T00:47:42.446Z,100249.81
2024-03-05T00:50:09.607Z,100254.34
2024-03-05T00:52:36.383Z,100242.91
2024-03-05T00:55:03.148Z,100235.97
2024-03-05T00:57:30.551Z,100244.59
2024-03-05T00:59:57.636Z,100242.69
2024-03-05T01:02:24.647Z,100239.94
2024-03-05T01:04:54.233Z,100237.31
2024-03-05T01:07:21.166Z,100250.44
2024-03-05T01:09:49.535Z,100249.50
2024-03-05T01:12:16.607Z,100245.84
2024-03-05T01:14:43.227Z,100241.34
2024-03-05T01:17:13.601Z,100241.44
2024-03-05T01:19:40.269Z,100240.59
2024-03-05T01:22:11.936Z,100238.72
2024-03-05T01:24:40.740Z,100251.38
2024-03-05T01:27:08.587Z,100239.94
2024-03-05T01:29:35.244Z,100235.53
2024-03-05T01:32:02.995Z,100237.88
2024-03-05T01:34:29.855Z,100236.59
2024-03-05T01:36:59.457Z,100239.34
2024-03-05T01:39:29.703Z,100238.28
2024-03-05T01:41:57.710Z,100233.38
2024-03-05T01:44:24.936Z,100231.47
2024-03-05T01:46:55.355Z,100226.34
2024-03-05T01:49:22.882Z,100232.63
2024-03-05T01:51:49.775Z,100234.09
2024-03-05T01:54:18.470Z,100228.63
2024-03-05T01:56:51.184Z,100230.28
2024-03-05T01:59:22.380Z,100232.41
2024-03-05T02:01:49.723Z,100232.19
2024-03-05T02:04:17.059Z,100235.88
2024-03-05T02:06:44.375Z,100230.13
2024-03-05T02:09:13.758Z,100233.69
2024-03-05T02:11:52.590Z,100223.31
2024-03-05T02:14:24.526Z,100220.69
2024-03-05T02:16:51.756Z,100227.59
2024-03-05T02:19:18.488Z,100217.34
2024-03-05T02:21:45.883Z,100212.94
2024-03-05T02:24:12.550Z,100211.88
2024-03-05T02:26:39.517Z,100217.22
2024-03-05T02:29:06.082Z,100208.09
2024-03-05T02:31:32.915Z,100203.28
2024-03-05T02:33:59.395Z,100196.97
2024-03-05T02:36:28.891Z,100199.72
2024-03-05T02:38:55.658Z,100207.56
2024-03-05T02:41:26.934Z,100202.84
2024-03-05T02:43:53.569Z,100192.34
2024-03-05T02:46:22.277Z,100196.84
2024-03-05T02:48:49.079Z,100210.81
2024-03-05T02:51:20.296Z,100224.88
2024-03-05T02:53:49.871Z,100232.84
2024-03-05T02:56:16.540Z,100234.94
2024-03-05T02:58:43.378Z,100234.94
2024-03-05T03:01:10.016Z,100240.00
2024-03-05T03:03:36.561Z,100240.00
2024-03-05T03:06:04.090Z,100234.63
2024-03-05T03:08:31.121Z,100245.22
2024-03-05T03:10:57.893Z,100244.28
2024-03-05T03:13:24.702Z,100247.41
2024-03-05T03:15:51.420Z,100246.03
2024-03-05T03:18:18.111Z,100245.09
2024-03-05T03:20:44.845Z,100250.78
2024-03-05T03:23:11.345Z,100248.38
2024-03-05T03:25:42.265Z,100251.63
2024-03-05T03:28:09.429Z,100255.06
2024-03-05T03:30:35.948Z,100254.44
2024-03-05T03:33:05.595Z,100257.81
2024-03-05T03:35:32.345Z,100259.69
2024-03-05T03:38:02.001Z,100269.03
2024-03-05T03:40:34.451Z,100261.38
2024-03-05T03:43:01.487Z,100269.25
2024-03-05T03:45:28.434Z,100270.81
2024-03-05T03:47:54.876Z,100268.19
2024-03-05T03:50:21.502Z,100269.88
2024-03-05T03:52:48.096Z,100260.31
2024-03-05T03:55:14.621Z,100238.38
2024-03-05T03:57:41.192Z,100230.53
2024-03-05T04:00:09.254Z,100221.69
2024-03-05T04:02:39.075Z,100221.69
2024-03-05T04:05:06.163Z,100228.84
2024-03-05T04:07:35.157Z,100233.88
2024-03-05T04:10:02.061Z,100230.53
2024-03-05T04:12:31.110Z,100232.19
2024-03-05T04:14:57.516Z,100233.75
2024-03-05T04:17:24.167Z,100230.28
2024-03-05T04:19:52.967Z,100235.75
2024-03-05T04:22:19.756Z,100241.97
2024-03-05T04:24:57.547Z,100240.28
2024-03-05T04:27:28.433Z,100246.25
2024-03-05T04:29:58.842Z,100228.84
2024-03-05T04:32:27.978Z,100231.56
2024-03-05T04:35:07.885Z,100230.53
2024-03-05T04:37:34.551Z,100230.75
2024-03-05T04:40:01.319Z,100235.97
2024-03-05T04:42:27.894Z,100240.28
2024-03-05T04:44:54.648Z,100239.34
2024-03-05T04:47:22.168Z,100237.66
2024-03-05T04:49:50.998Z,100242.69
2024-03-05T04:52:19.798Z,100249.81
2024-03-05T04:54:50.895Z,100245.31
2024-03-05T04:57:21.151Z,100238.94
2024-03-05T04:59:49.320Z,100242.28
2024-03-05T05:02:18.749Z,100242.47
2024-03-05T05:04:49.470Z,100240.78
2024-03-05T05:07:24.165Z,100234.72
2024-03-05T05:09:50.766Z,100231.91
2024-03-05T05:12:17.371Z,100231.78
2024-03-05T05:14:46.122Z,100235.97
2024-03-05T05:17:16.820Z,100229.47
2024-03-05T05:19:43.376Z,100233.03
2024-03-05T05:22:09.959Z,100231.34
2024-03-05T05:24:37.485Z,100233.13
2024-03-05T05:27:04.721Z,100224.03
2024-03-05T05:29:39.788Z,100226.66
2024-03-05T05:32:11.460Z,100225.94
2024-03-05T05:34:40.371Z,100224.25
2024-03-05T05:37:06.952Z,100226.78
2024-03-05T05:39:33.757Z,100223.41
2024-03-05T05:42:00.603Z,100230.44
2024-03-05T05:44:30.268Z,100232.97
2024-03-05T05:46:57.703Z,100230.44
2024-03-05T05:49:26.598Z,100232.84
2024-03-05T05:51:53.966Z,100231.38
2024-03-05T05:54:22.823Z,100235.69
2024-03-05T05:56:50.296Z,100234.09
2024-03-05T05:59:18.094Z,100233.78
2024-03-05T06:01:46.858Z,100221.19
2024-03-05T06:04:16.674Z,100225.38
2024-03-05T06:06:44.565Z,100228.00
2024-03-05T06:09:11.183Z,100226.44
2024-03-05T06:11:41.150Z,100219.41
2024-03-05T06:14:10.005Z,100222.75
2024-03-05T06:16:36.502Z,100225.50
2024-03-05T06:19:03.021Z,100228.00
2024-03-05T06:21:29.616Z,100222.97
2024-03-05T06:23:56.356Z,100231.91
2024-03-05T06:26:22.855Z,100225.09
2024-03-05T06:28:49.587Z,100228.44
2024-03-05T06:31:16.939Z,100230.34
2024-03-05T06:33:43.681Z,100229.69
2024-03-05T06:36:12.613Z,100231.38
2024-03-05T06:38:39.148Z,100240.81
2024-03-05T06:41:05.891Z,100235.59
2024-03-05T06:43:37.987Z,100237.03
2024-03-05T06:46:05.473Z,100238.09
2024-03-05T06:48:33.875Z,100245.84
2024-03-05T06:51:06.002Z,100241.44
2024-03-05T06:53:51.223Z,100247.41
2024-03-05T06:56:36.069Z,100247.94
2024-03-05T06:59:05.501Z,100245.19
2024-03-05T07:01:36.040Z,100248.47
2024-03-05T07:04:07.048Z,100256.34
2024-03-05T07:06:35.992Z,100250.88
2024-03-05T07:09:05.460Z,100256.53
2024-03-05T07:11:35.466Z,100259.47
2024-03-05T07:14:03.146Z,100259.47
2024-03-05T07:16:33.561Z,100259.47
2024-03-05T07:19:02.560Z,100261.16
2024-03-05T07:21:32.003Z,100261.16
2024-03-05T07:24:00.327Z,100265.34
2024-03-05T07:26:27.288Z,100266.06
2024-03-05T07:28:54.032Z,100264.94
2024-03-05T07:31:20.987Z,100265.16
2024-03-05T07:33:51.620Z,100264.84
2024-03-05T07:36:20.007Z,100266.63
2024-03-05T07:38:46.580Z,100264.22
2024-03-05T07:41:18.421Z,100272.09
2024-03-05T07:43:55.280Z,100259.81
2024-03-05T07:46:21.823Z,100266.84
2024-03-05T07:48:48.291Z,100270.19
2024-03-05T07:51:21.478Z,100266.84
2024-03-05T07:53:51.612Z,100268.50
2024-03-05T07:56:18.140Z,100271.97
2024-03-05T07:58:44.597Z,100267.56
2024-03-05T08:01:13.644Z,100270.91
2024-03-05T08:03:42.236Z,100277.13
2024-03-05T08:06:08.990Z,100277.13
2024-03-05T08:08:35.518Z,100274.81
2024-03-05T08:11:02.049Z,100277.31
2024-03-05T08:13:29.645Z,100286.88
2024-03-05T08:15:56.358Z,100291.19
2024-03-05T08:18:27.810Z,100285.94
2024-03-05T08:20:54.394Z,100288.63
2024-03-05T08:23:23.941Z,100293.69
2024-03-05T08:25:52.851Z,100293.25
2024-03-05T08:28:19.585Z,100290.63
2024-03-05T08:30:46.097Z,100295.66
2024-03-05T08:33:13.506Z,100294.91
2024-03-05T08:35:42.645Z,100295.75
2024-03-05T08:38:10.481Z,100293.91
2024-03-05T08:40:39.296Z,100292.97
2024-03-05T08:43:08.159Z,100293.25
2024-03-05T08:45:38.301Z,100294.31
2024-03-05T08:48:05.043Z,100296.31
2024-03-05T08:50:36.936Z,100294.19
2024-03-05T08:53:06.250Z,100295.38
2024-03-05T08:55:32.978Z,100299.88
2024-03-05T08:58:01.352Z,100296.63
2024-03-05T09:00:37.903Z,100300.00
2024-03-05T09:03:10.612Z,100298.59
2024-03-05T09:05:41.354Z,100296.81
2024-03-05T09:08:09.892Z,100301.56
2024-03-05T09:10:39.984Z,100296.19
2024-03-05T09:13:08.932Z,100302.28
2024-03-05T09:15:42.661Z,100302.28
2024-03-05T09:18:15.613Z,100307.75
2024-03-05T09:20:43.259Z,100312.56
2024-03-05T09:23:10.200Z,100310.88
2024-03-05T09:25:38.111Z,100311.22
2024-03-05T09:28:05.768Z,100308.59
2024-03-05T09:30:35.063Z,100314.44
2024-03-05T09:33:04.166Z,100317.81
2024-03-05T09:35:31.457Z,100317.19
2024-03-05T09:38:00.739Z,100312.69
2024-03-05T09:40:27.614Z,100311.50
2024-03-05T09:43:00.441Z,100316.56
2024-03-05T09:45:31.728Z,100315.09
2024-03-05T09:48:03.201Z,100323.50
2024-03-05T09:50:32.516Z,100326.00
2024-03-05T09:53:01.031Z,100323.06
2024-03-05T09:55:28.228Z,100317.59
2024-03-05T09:57:55.850Z,100324.53
2024-03-05T10:00:23.619Z,100326.19
2024-03-05T10:02:55.800Z,100330.72
2024-03-05T10:05:27.757Z,100331.66
2024-03-05T10:07:54.226Z,100338.81
2024-03-05T10:10:22.737Z,100340.25
2024-03-05T10:12:51.574Z,100343.09
2024-03-05T10:15:26.541Z,100343.22
2024-03-05T10:17:55.782Z,100349.31
2024-03-05T10:20:38.589Z,100341.75
2024-03-05T10:23:07.560Z,100347.84
2024-03-05T10:25:38.125Z,100347.41
2024-03-05T10:28:06.260Z,100354.97
2024-03-05T10:30:35.936Z,100356.47
2024-03-05T10:33:04.078Z,100352.47
2024-03-05T10:35:34.060Z,100358.34
2024-03-05T10:38:00.825Z,100351.00
2024-03-05T10:40:33.831Z,100359.28
2024-03-05T10:43:08.617Z,100360.84
2024-03-05T10:45:42.366Z,100363.69
2024-03-05T10:48:11.843Z,100360.84
2024-03-05T10:50:41.471Z,100361.47
2024-03-05T10:53:11.451Z,100374.50
2024-03-05T10:55:39.419Z,100373.25
2024-03-05T10:58:13.909Z,100372.91
2024-03-05T11:00:47.478Z,100369.03
2024-03-05T11:03:15.964Z,100368.94
2024-03-05T11:05:49.703Z,100372.19
2024-03-05T11:08:21.163Z,100374.50
2024-03-05T11:10:56.312Z,100376.19
2024-03-05T11:13:24.000Z,100368.00
2024-03-05T11:15:50.843Z,100377.38
2024-03-05T11:18:30.096Z,100372.19
2024-03-05T11:20:57.046Z,100377.78
2024-03-05T11:23:27.873Z,100370.31
2024-03-05T11:26:01.963Z,100373.91
2024-03-05T11:28:28.718Z,100367.88
2024-03-05T11:31:09.856Z,100372.19
2024-03-05T11:33:36.421Z,100373.03
2024-03-05T11:36:14.418Z,100363.28
2024-03-05T11:39:04.851Z,100369.78
2024-03-05T11:41:51.884Z,100374.09
2024-03-05T11:44:36.228Z,100374.09
2024-03-05T11:47:04.361Z,100377.44
2024-03-05T11:49:31.373Z,100379.34
2024-03-05T11:51:59.773Z,100384.41
2024-03-05T11:54:26.274Z,100389.84
2024-03-05T11:57:00.495Z,100384.47
2024-03-05T11:59:37.894Z,100391.13
2024-03-05T12:02:16.758Z,100390.88
2024-03-05T12:04:50.034Z,100386.25
2024-03-05T12:07:17.596Z,100397.38
2024-03-05T12:09:47.278Z,100391.50
2024-03-05T12:12:15.616Z,100389.81
2024-03-05T12:14:54.370Z,100391.22
2024-03-05T12:17:22.534Z,100386.28
2024-03-05T12:20:00.789Z,100392.25
2024-03-05T12:22:27.739Z,100397.50
2024-03-05T12:24:54.650Z,100395.03
2024-03-05T12:27:22.203Z,100385.63
2024-03-05T12:29:51.417Z,100390.81
2024-03-05T12:32:19.628Z,100385.22
2024-03-05T12:34:47.418Z,100380.16
2024-03-05T12:37:14.680Z,100363.53
2024-03-05T12:39:41.621Z,100344.59
2024-03-05T12:42:10.931Z,100324.22
2024-03-05T12:44:37.522Z,100290.50
2024-03-05T12:47:16.223Z,100268.72
2024-03-05T12:49:46.690Z,100257.13
2024-03-05T12:52:23.978Z,100258.09
2024-03-05T12:55:01.458Z,100250.78
2024-03-05T12:57:35.302Z,100246.00
2024-03-05T13:00:07.006Z,100247.41
2024-03-05T13:02:33.741Z,100253.63
2024-03-05T13:05:03.552Z,100253.28
2024-03-05T13:07:31.078Z,100252.16
2024-03-05T13:09:58.871Z,100271.50
2024-03-05T13:12:25.620Z,100270.06
2024-03-05T13:14:52.173Z,100271.22
2024-03-05T13:17:22.140Z,100270.16
2024-03-05T13:19:51.040Z,100278.75
2024-03-05T13:22:21.805Z,100274.25
2024-03-05T13:24:48.391Z,100274.44
2024-03-05T13:27:14.921Z,100274.00
2024-03-05T13:29:41.575Z,100278.06
2024-03-05T13:32:08.122Z,100273.41
2024-03-05T13:34:34.907Z,100281.09
2024-03-05T13:37:01.599Z,100280.44
2024-03-05T13:39:28.104Z,100276.94
2024-03-05T13:41:55.565Z,100267.50
2024-03-05T13:44:23.718Z,100272.53
2024-03-05T13:46:51.828Z,100270.13
2024-03-05T13:49:20.008Z,100274.66
2024-03-05T13:51:46.505Z,100272.75
2024-03-05T13:54:13.138Z,100267.97
2024-03-05T13:56:44.089Z,100275.63
2024-03-05T13:59:11.898Z,100282.44
2024-03-05T14:01:39.413Z,100277.09
2024-03-05T14:04:10.660Z,100280.31
2024-03-05T14:06:40.027Z,100278.75
2024-03-05T14:09:10.155Z,100277.94
2024-03-05T14:11:37.371Z,100267.06
2024-03-05T14:14:04.640Z,100272.53
2024-03-05T14:16:32.995Z,100278.03
2024-03-05T14:19:04.747Z,100275.88
2024-03-05T14:21:31.791Z,100277.69
2024-03-05T14:24:17.286Z,100283.06
2024-03-05T14:26:44.077Z,100279.78
2024-03-05T14:29:10.872Z,100282.81
2024-03-05T14:31:38.282Z,100287.34
2024-03-05T14:34:05.449Z,100282.34
2024-03-05T14:36:32.819Z,100287.34
2024-03-05T14:39:04.108Z,100294.06
2024-03-05T14:41:33.934Z,100294.53
2024-03-05T14:44:00.349Z,100296.91
2024-03-05T14:46:29.037Z,100290.84
2024-03-05T14:48:57.959Z,100300.31
2024-03-05T14:51:27.417Z,100304.63
2024-03-05T14:53:53.930Z,100301.53
2024-03-05T14:56:20.580Z,100308.97
2024-03-05T14:58:49.729Z,100302.88
2024-03-05T15:01:16.368Z,100308.00
2024-03-05T15:03:49.973Z,100309.69
2024-03-05T15:06:18.762Z,100305.59
2024-03-05T15:08:46.856Z,100303.22
2024-03-05T15:11:13.473Z,100311.34
2024-03-05T15:13:40.605Z,100308.22
2024-03-05T15:16:12.134Z,100310.63
2024-03-05T15:18:38.943Z,100314.47
2024-03-05T15:21:09.574Z,100317.56
2024-03-05T15:23:36.122Z,100309.88
2024-03-05T15:26:03.013Z,100308.44
2024-03-05T15:28:30.659Z,100315.59
2024-03-05T15:30:57.310Z,100315.13
2024-03-05T15:33:23.992Z,100325.38
2024-03-05T15:35:50.614Z,100326.81
2024-03-05T15:38:18.121Z,100322.50
2024-03-05T15:40:44.778Z,100325.97
2024-03-05T15:43:13.321Z,100323.91
2024-03-05T15:45:41.865Z,100326.28
2024-03-05T15:48:11.962Z,100324.38
2024-03-05T15:50:42.591Z,100318.41
2024-03-05T15:53:09.906Z,100338.25
2024-03-05T15:55:40.232Z,100335.63
2024-03-05T15:58:06.865Z,100340.16
2024-03-05T16:00:38.935Z,100330.13
2024-03-05T16:03:08.046Z,100334.19
2024-03-05T16:05:43.344Z,100328.41
2024-03-05T16:08:22.046Z,100335.31
2024-03-05T16:10:50.048Z,100331.97
2024-03-05T16:13:17.689Z,100335.03
2024-03-05T16:15:47.091Z,100341.47
2024-03-05T16:18:14.373Z,100334.78
2024-03-05T16:20:41.252Z,100338.13
2024-03-05T16:23:11.739Z,100338.56
2024-03-05T16:25:41.479Z,100336.69
2024-03-05T16:28:10.649Z,100338.56
2024-03-05T16:30:38.661Z,100344.50
2024-03-05T16:33:06.551Z,100344.22
2024-03-05T16:35:42.322Z,100350.38
2024-03-05T16:38:10.341Z,100351.53
2024-03-05T16:40:38.306Z,100359.16
2024-03-05T16:43:06.791Z,100355.59
2024-03-05T16:45:36.099Z,100347.66
2024-03-05T16:48:06.486Z,100354.97
2024-03-05T16:50:33.453Z,100362.34
2024-03-05T16:53:02.935Z,100355.63
2024-03-05T16:55:29.813Z,100357.50
2024-03-05T16:58:00.692Z,100362.31
2024-03-05T17:00:28.686Z,100367.78
2024-03-05T17:03:07.299Z,100373.25
2024-03-05T17:05:37.806Z,100369.13
2024-03-05T17:08:11.492Z,100373.84
2024-03-05T17:10:40.204Z,100377.13
2024-03-05T17:13:07.673Z,100375.84
2024-03-05T17:15:39.375Z,100370.34
2024-03-05T17:18:07.161Z,100377.06
2024-03-05T17:20:36.752Z,100377.56
2024-03-05T17:23:04.422Z,100375.56
2024-03-05T17:25:43.459Z,100376.25
2024-03-05T17:28:12.359Z,100380.50
2024-03-05T17:30:40.027Z,100380.19
2024-03-05T17:33:14.837Z,100375.50
2024-03-05T17:35:42.434Z,100376.31
2024-03-05T17:38:11.179Z,100385.47
2024-03-05T17:40:38.492Z,100390.81
2024-03-05T17:43:05.550Z,100395.41
2024-03-05T17:45:33.107Z,100393.00
2024-03-05T17:48:06.062Z,100393.38
2024-03-05T17:50:33.678Z,100397.13
2024-03-05T17:53:00.482Z,100405.91
2024-03-05T17:55:27.039Z,100405.38
2024-03-05T17:57:53.631Z,100397.50
2024-03-05T18:00:23.468Z,100402.34
2024-03-05T18:02:51.896Z,100401.50
2024-03-05T18:05:19.726Z,100398.41
2024-03-05T18:07:49.075Z,100403.94
2024-03-05T18:10:15.884Z,100399.38
2024-03-05T18:12:44.840Z,100400.69
2024-03-05T18:15:11.980Z,100410.69
2024-03-05T18:17:41.800Z,100409.75
2024-03-05T18:20:19.148Z,100401.22
2024-03-05T18:22:46.584Z,100407.34
2024-03-05T18:25:24.152Z,100407.13
2024-03-05T18:27:57.094Z,100410.00
2024-03-05T18:30:25.946Z,100418.63
2024-03-05T18:32:53.129Z,100417.41
2024-03-05T18:35:22.930Z,100424.53
2024-03-05T18:37:49.793Z,100419.47
2024-03-05T18:40:16.574Z,100423.88
2024-03-05T18:42:49.755Z,100428.31
2024-03-05T18:45:17.492Z,100426.66
2024-03-05T18:47:58.600Z,100426.94
2024-03-05T18:50:30.978Z,100432.53
2024-03-05T18:52:58.442Z,100432.03
2024-03-05T18:55:25.337Z,100431.50
2024-03-05T18:57:54.181Z,100436.81
2024-03-05T19:00:20.815Z,100433.63
2024-03-05T19:02:52.166Z,100431.25
2024-03-05T19:05:19.983Z,100444.63
2024-03-05T19:07:48.318Z,100430.13
2024-03-05T19:10:19.093Z,100439.06
2024-03-05T19:12:46.270Z,100445.66
2024-03-05T19:15:18.422Z,100452.22
2024-03-05T19:17:48.703Z,100450.69
2024-03-05T19:20:16.167Z,100460.00
2024-03-05T19:22:43.148Z,100460.16
2024-03-05T19:25:13.707Z,100466.56
2024-03-05T19:27:42.331Z,100464.97
2024-03-05T19:30:17.060Z,100462.69
2024-03-05T19:32:44.753Z,100462.03
2024-03-05T19:35:15.439Z,100461.56
2024-03-05T19:37:43.531Z,100461.69
2024-03-05T19:40:16.984Z,100462.91
2024-03-05T19:42:58.631Z,100464.94
2024-03-05T19:45:27.817Z,100471.19
2024-03-05T19:47:54.692Z,100471.00
2024-03-05T19:50:25.054Z,100476.41
2024-03-05T19:52:56.596Z,100473.84
2024-03-05T19:55:23.758Z,100476.22
2024-03-05T19:57:51.390Z,100473.63
2024-03-05T20:00:20.282Z,100484.91
2024-03-05T20:02:48.074Z,100485.75
2024-03-05T20:05:16.007Z,100479.59
2024-03-05T20:07:42.725Z,100492.66
2024-03-05T20:10:10.188Z,100475.88
2024-03-05T20:12:36.862Z,100494.91
2024-03-05T20:15:09.715Z,100494.16
2024-03-05T20:17:42.796Z,100501.91
2024-03-05T20:20:17.255Z,100501.81
2024-03-05T20:22:48.621Z,100494.59
2024-03-05T20:25:19.309Z,100506.56
2024-03-05T20:27:51.135Z,100506.38
2024-03-05T20:30:18.129Z,100512.28
2024-03-05T20:32:49.832Z,100512.78
2024-03-05T20:35:17.788Z,100517.88
2024-03-05T20:37:51.573Z,100519.38
2024-03-05T20:40:22.029Z,100520.88
2024-03-05T20:42:49.057Z,100519.63
2024-03-05T20:45:16.087Z,100520.53
2024-03-05T20:47:45.688Z,100524.09
2024-03-05T20:50:13.081Z,100514.47
2024-03-05T20:52:40.089Z,100519.72
2024-03-05T20:55:07.305Z,100519.78
2024-03-05T20:57:41.614Z,100514.56
2024-03-05T21:00:15.239Z,100517.84
2024-03-05T21:02:43.032Z,100528.22
2024-03-05T21:05:14.127Z,100523.72
2024-03-05T21:07:41.848Z,100528.78
2024-03-05T21:10:11.301Z,100536.81
2024-03-05T21:12:39.506Z,100540.19
2024-03-05T21:15:10.959Z,100552.50
2024-03-05T21:17:44.401Z,100551.66
2024-03-05T21:20:12.836Z,100556.38
2024-03-05T21:22:41.725Z,100561.69
2024-03-05T21:25:09.452Z,100564.41
2024-03-05T21:27:36.917Z,100571.75
2024-03-05T21:30:08.191Z,100574.88
2024-03-05T21:32:37.002Z,100570.16
2024-03-05T21:35:07.112Z,100579.22
2024-03-05T21:37:38.909Z,100573.56
2024-03-05T21:40:07.063Z,100572.28
2024-03-05T21:42:33.897Z,100573.81
2024-03-05T21:45:00.636Z,100572.63
2024-03-05T21:47:27.286Z,100573.09
2024-03-05T21:49:54.176Z,100569.16
2024-03-05T21:52:24.429Z,100573.78
2024-03-05T21:54:50.876Z,100573.03
2024-03-05T21:57:17.413Z,100575.63
2024-03-05T21:59:44.488Z,100570.25
2024-03-05T22:02:13.351Z,100575.47
2024-03-05T22:04:42.599Z,100584.06
2024-03-05T22:07:11.798Z,100584.72
2024-03-05T22:09:40.626Z,100594.16
2024-03-05T22:12:07.302Z,100595.72
2024-03-05T22:14:33.932Z,100595.56
2024-03-05T22:17:00.609Z,100599.69
2024-03-05T22:19:27.035Z,100595.22
2024-03-05T22:21:53.541Z,100605.56
2024-03-05T22:24:22.356Z,100604.44
2024-03-05T22:26:48.888Z,100606.88
2024-03-05T22:29:15.466Z,100598.09
2024-03-05T22:31:42.196Z,100604.84
2024-03-05T22:34:15.908Z,100608.38
2024-03-05T22:36:42.586Z,100599.63
2024-03-05T22:39:09.121Z,100599.63
2024-03-05T22:41:35.715Z,100599.78
2024-03-05T22:44:02.370Z,100606.69
2024-03-05T22:46:28.946Z,100609.41
2024-03-05T22:48:55.559Z,100610.53
2024-03-05T22:51:25.662Z,100610.88
2024-03-05T22:53:52.192Z,100605.84
2024-03-05T22:56:18.889Z,100604.41
2024-03-05T22:58:45.459Z,100608.16
2024-03-05T23:01:12.076Z,100613.53
2024-03-05T23:03:38.666Z,100614.72
2024-03-05T23:06:11.926Z,100607.94
2024-03-05T23:08:44.246Z,100616.03
2024-03-05T23:11:11.559Z,100617.88
2024-03-05T23:13:40.512Z,100614.41
2024-03-05T23:16:11.801Z,100618.03
2024-03-05T23:18:38.453Z,100616.19
2024-03-05T23:21:05.760Z,100614.50
2024-03-05T23:23:32.499Z,100618.03
2024-03-05T23:25:59.036Z,100619.56
2024-03-05T23:28:25.950Z,100624.78
2024-03-05T23:30:54.843Z,100618.56
2024-03-05T23:33:21.744Z,100628.06
2024-03-05T23:35:48.207Z,100627.22
2024-03-05T23:38:14.685Z,100623.78
2024-03-05T23:40:43.617Z,100619.56
2024-03-05T23:43:10.703Z,100623.09
2024-03-05T23:45:37.627Z,100622.41
2024-03-05T23:48:07.309Z,100625.97
2024-03-05T23:50:37.793Z,100632.19
2024-03-05T23:53:06.696Z,100634.94
2024-03-05T23:55:33.351Z,100648.13
2024-03-05T23:58:01.161Z,100648.13
